Willow Creek, MT (59760)

11:09 PM MDT on September 02, 2015 (GMT -0600)
Three Forks High School | | Change Station
CLOSE
Current Station
Personal Weather Station
Location: Three Forks, MT
Elevation: 4075 ft
Nearby Weather Stations

Elev 4075 ft 45.90 °N, 111.55 °W | Updated 36 seconds ago

Clear
Clear
68.6 °F
Feels Like 68.6 °F
N
3.0
Wind Variable Wind from SE

Today
High -- | Low -- °F
--% Chance of Precip.
Yesterday
High -- | Low -- °F
Precip. -- in
6:48 AM 8:03 PM
Waning Gibbous, 74% visible
Pressure 29.68 in
Visibility 10.0 miles
Clouds Clear
Dew Point 41 °F
Humidity 36%
Rainfall 0.00 in
Snow Depth Not available.
UV 0 out of 12
Pollen 8.40 out of 12
Air Quality Not available.
Flu Activity Not available.
METAR KBZN 030456Z 34008KT 10SM CLR 17/00 A2981 RMK AO2 SLP048 T01670000
Pressure 29.68 in
Visibility 10.0 miles
Clouds Clear
Dew Point 41 °F
Humidity 36%
Rainfall 0.00 in
Snow Depth Not available.
UV 0 out of 12
Pollen 8.40 out of 12
Air Quality Not available.
Flu Activity Not available.
METAR KBZN 030456Z 34008KT 10SM CLR 17/00 A2981 RMK AO2 SLP048 T01670000

10-Day Weather Forecast

×

Almanac

Astronomy

Sep. 02, 2015 Rise Set
Actual Time
Civil Twilight
Nautical Twilight
Astronomical Twilight
Moon
Length of Visible Light
Length of Day
Tomorrow will be .
, % of the Moon is Illuminated

Today's Extremes

State Highs State Lows

Community

WunderPhotos

Upload Photos

1,851,914 photos uploaded!

WunderBlogs® & News

Nearby

Air Quality

  Air Quality AQ Index Pollutant
Not available.

Snow Depth

Station Depth Elevation

Earthquake Activity

City Distance Mag. Time & Date
Minimum magnitude displayed is 2.5.

Coastal Water Temperatures

Place Temperature

Stations

Nearby Weather Stations

Station Location Temp. Windchill Dew Point Humidity Wind Precip. Elev Updated Type